Archival Weather

Chicago O'Hare International

Chicago, Illinois (KORD)

Report from: Thursday, March 21, 2024 3:51 AM CDT
Current time: Tuesday, May 21, 2024 12:29 PM CDT

Current weather – Weather history – Daily summaries
Weather forecast

Temperature-2.2°C (28.0°F)
Dew point-7.2°C (19.0°F)
Winds Calm
Visibility10 mi. (16.1 km)
Clouds Few clouds 3,700 ft. (1,128 m)
Scattered clouds 15,000 ft. (4,572 m)
Altimeter30.24 in.Hg (1024 mB)
Relative humidity69 %
Density altitude-2,441 ft. (-744 m)
Sea-level pressure102.5 kPa (1025 mB, 30.26 in.Hg)
Remarks System requires maintenance
Automated weather observing station with precipitation discriminator
Pressure rising more quickly
Flight conditions Visual Meteorological Conditions
Raw dataKORD 210851Z 00000KT 10SM FEW037 SCT150 M02/M07 A3024 RMK AO2 SLP246 T10221072 53007 $
An error has occurred. This application may no longer respond until reloaded. Reload 🗙